Tamon — JD2900 — position and weather

sailwx.info

Track history (hours):
 
Tides and Currents Weather Stations Pressure Air Temp Water Temp Dewpoint Dewpoint Depression Visibility Wind Speed Wind Dir Waves Ship Positions

Tamon

Last reported at 2018-Jun-23 05:26 UTC. Time now 2018-Jun-24 14:30 UTC.
Position N 35°05' E 139°47'.

Length 77 m; draft 4 m.

Type: Cargo ship. MMSI: 431000898.

Date/timePositionNaut miles runAvg speedWind from/ knotsBaromVisibWave heightAir tempDewpointWater temp
2018-Jun-23 05:26N 35°05' E 139°47'611.9
2018-Jun-23 04:57N 35°11' E 139°46'511.8
2018-Jun-23 04:30N 35°16' E 139°46'611.9
2018-Jun-23 04:01N 35°21' E 139°43'611.3
2018-Jun-23 03:30N 35°27' E 139°41'1 1.4
2018-Jun-23 03:01N 35°27' E 139°40'0 0.0
2018-Jun-23 02:29N 35°27' E 139°40'0 0.0
2018-Jun-23 02:00N 35°27' E 139°40'0 0.0
2018-Jun-23 01:29N 35°27' E 139°40'0 0.1
2018-Jun-23 01:01N 35°27' E 139°40'0 0.1
2018-Jun-23 00:30N 35°27' E 139°40'0 0.1
2018-Jun-23 00:01N 35°27' E 139°40'0 0.0
2018-Jun-22 23:31N 35°27' E 139°40'1 2.3
2018-Jun-22 23:00N 35°27' E 139°42'1 2.4
2018-Jun-22 22:30N 35°27' E 139°43'0 0.6
2018-Jun-22 22:01N 35°27' E 139°44'0 0.0
2018-Jun-22 21:30N 35°27' E 139°44'0 0.0
2018-Jun-22 20:59N 35°27' E 139°44'0 0.0
2018-Jun-22 20:30N 35°27' E 139°44'0 0.0
2018-Jun-22 20:00N 35°27' E 139°44'0 0.0
2018-Jun-22 19:31N 35°27' E 139°44'0 0.0
2018-Jun-22 19:00N 35°27' E 139°44'0 0.1
2018-Jun-22 18:31N 35°27' E 139°44'0 0.1
2018-Jun-22 18:01N 35°27' E 139°44'0 0.0
2018-Jun-22 17:29N 35°27' E 139°44'0 0.0
2018-Jun-22 17:01N 35°27' E 139°44'0 0.0
2018-Jun-22 16:29N 35°27' E 139°44'0 0.0
2018-Jun-22 16:00N 35°27' E 139°44'0 0.0
2018-Jun-22 15:30N 35°27' E 139°44'0 0.0
2018-Jun-22 15:01N 35°27' E 139°44'0 0.0
2018-Jun-22 14:30N 35°27' E 139°44'0 0.0
2018-Jun-22 14:00N 35°27' E 139°44'0 0.0
2018-Jun-22 13:30N 35°27' E 139°44'1 1.2
2018-Jun-22 13:00N 35°27' E 139°43'510.8
2018-Jun-22 12:30N 35°21' E 139°43'612.6
2018-Jun-22 12:00N 35°16' E 139°47'712.7
2018-Jun-22 11:29N 35°09' E 139°46'612.4
2018-Jun-22 10:59N 35°04' E 139°41'  
2018-Jun-19 02:14N 33°54' E 135°02'311.3
2018-Jun-19 01:58N 33°57' E 135°01'511.4
2018-Jun-19 01:30N 34°02' E 135°00'611.7
2018-Jun-19 01:00N 34°08' E 134°59'612.6
2018-Jun-19 00:31N 34°15' E 134°59'611.1
2018-Jun-19 00:01N 34°20' E 135°02'612.7
2018-Jun-18 23:31N 34°23' E 135°08'1 2.7
2018-Jun-18 23:01N 34°24' E 135°09'0 0.0
2018-Jun-18 22:31N 34°24' E 135°09'0 0.0
2018-Jun-18 22:01N 34°24' E 135°09'0 0.0
2018-Jun-18 21:31N 34°24' E 135°09'0 0.0
2018-Jun-18 21:01N 34°24' E 135°09'0 0.0
2018-Jun-18 20:31N 34°24' E 135°09'0 0.0
2018-Jun-18 20:00N 34°24' E 135°09'0 0.0
2018-Jun-18 19:30N 34°24' E 135°09'0 0.0
2018-Jun-18 19:01N 34°24' E 135°09'0 0.0
2018-Jun-18 18:30N 34°24' E 135°09'0 0.0
2018-Jun-18 18:00N 34°24' E 135°09'0 0.0
2018-Jun-18 17:30N 34°24' E 135°09'0 0.1
2018-Jun-18 17:01N 34°24' E 135°09'0 0.0
2018-Jun-18 16:31N 34°24' E 135°09'0 0.1
2018-Jun-18 16:00N 34°24' E 135°09'611.7
2018-Jun-18 15:31N 34°29' E 135°06'611.1
2018-Jun-18 15:01N 34°34' E 135°04'4 7.8
2018-Jun-18 14:31N 34°37' E 135°01'5 9.5
2018-Jun-18 14:01N 34°36' E 134°55'5 9.4
2018-Jun-18 13:30N 34°34' E 134°50'511.0
2018-Jun-18 13:01N 34°32' E 134°44'611.8
2018-Jun-18 12:30N 34°29' E 134°37'712.5
2018-Jun-18 11:56N 34°27' E 134°29'  
2018-Jun-15 07:59N 34°42' E 134°44'611.7
2018-Jun-15 07:29N 34°39' E 134°50'510.3
2018-Jun-15 07:00N 34°37' E 134°56'5 9.8
2018-Jun-15 06:30N 34°37' E 135°02'4 6.9
2018-Jun-15 05:59N 34°35' E 135°05'5 9.9
2018-Jun-15 05:30N 34°30' E 135°04'611.2
2018-Jun-15 05:00N 34°25' E 135°02'611.1
2018-Jun-15 04:31N 34°20' E 135°00'5 9.3
2018-Jun-15 04:00N 34°15' E 134°59'510.0
2018-Jun-15 03:30N 34°10' E 134°59'611.2
2018-Jun-15 03:00N 34°05' E 135°00'611.4
2018-Jun-15 02:31N 33°59' E 135°01'510.9
2018-Jun-15 02:01N 33°53' E 135°02'610.2
2018-Jun-15 01:25N 33°49' E 135°06'240 5.9
2018-Jun-13 08:42N 35°07' E 139°41'211.6
2018-Jun-13 08:30N 35°09' E 139°43'611.8
2018-Jun-13 07:59N 35°14' E 139°46'511.2
2018-Jun-13 07:30N 35°19' E 139°43'611.3
2018-Jun-13 07:00N 35°24' E 139°43'611.9
2018-Jun-13 06:30N 35°29' E 139°47'2 4.8
2018-Jun-13 06:00N 35°31' E 139°45'0 0.0
2018-Jun-13 05:28N 35°31' E 139°45'  
Track history (hours):
 
Tides and Currents Weather Stations Pressure Air Temp Water Temp Dewpoint Dewpoint Depression Visibility Wind Speed Wind Dir Waves Ship Positions

Tamon

Last reported at 2018-Jun-23 05:26 UTC. Time now 2018-Jun-24 14:30 UTC.
Position N 35°05' E 139°47'.

Length 77 m; draft 4 m.

Type: Cargo ship. MMSI: 431000898.

Date/timePositionNaut miles runAvg speedWind from/ knotsBaromVisibWave heightAir tempDewpointWater temp
2018-Jun-23 05:26N 35°05' E 139°47'611.9
2018-Jun-23 04:57N 35°11' E 139°46'511.8
2018-Jun-23 04:30N 35°16' E 139°46'611.9
2018-Jun-23 04:01N 35°21' E 139°43'611.3
2018-Jun-23 03:30N 35°27' E 139°41'1 1.4
2018-Jun-23 03:01N 35°27' E 139°40'0 0.0
2018-Jun-23 02:29N 35°27' E 139°40'0 0.0
2018-Jun-23 02:00N 35°27' E 139°40'0 0.0
2018-Jun-23 01:29N 35°27' E 139°40'0 0.1
2018-Jun-23 01:01N 35°27' E 139°40'0 0.1
2018-Jun-23 00:30N 35°27' E 139°40'0 0.1
2018-Jun-23 00:01N 35°27' E 139°40'0 0.0
2018-Jun-22 23:31N 35°27' E 139°40'1 2.3
2018-Jun-22 23:00N 35°27' E 139°42'1 2.4
2018-Jun-22 22:30N 35°27' E 139°43'0 0.6
2018-Jun-22 22:01N 35°27' E 139°44'0 0.0
2018-Jun-22 21:30N 35°27' E 139°44'0 0.0
2018-Jun-22 20:59N 35°27' E 139°44'0 0.0
2018-Jun-22 20:30N 35°27' E 139°44'0 0.0
2018-Jun-22 20:00N 35°27' E 139°44'0 0.0
2018-Jun-22 19:31N 35°27' E 139°44'0 0.0
2018-Jun-22 19:00N 35°27' E 139°44'0 0.1
2018-Jun-22 18:31N 35°27' E 139°44'0 0.1
2018-Jun-22 18:01N 35°27' E 139°44'0 0.0
2018-Jun-22 17:29N 35°27' E 139°44'0 0.0
2018-Jun-22 17:01N 35°27' E 139°44'0 0.0
2018-Jun-22 16:29N 35°27' E 139°44'0 0.0
2018-Jun-22 16:00N 35°27' E 139°44'0 0.0
2018-Jun-22 15:30N 35°27' E 139°44'0 0.0
2018-Jun-22 15:01N 35°27' E 139°44'0 0.0
2018-Jun-22 14:30N 35°27' E 139°44'0 0.0
2018-Jun-22 14:00N 35°27' E 139°44'0 0.0
2018-Jun-22 13:30N 35°27' E 139°44'1 1.2
2018-Jun-22 13:00N 35°27' E 139°43'510.8
2018-Jun-22 12:30N 35°21' E 139°43'612.6
2018-Jun-22 12:00N 35°16' E 139°47'712.7
2018-Jun-22 11:29N 35°09' E 139°46'612.4
2018-Jun-22 10:59N 35°04' E 139°41'  
2018-Jun-19 02:14N 33°54' E 135°02'311.3
2018-Jun-19 01:58N 33°57' E 135°01'511.4
2018-Jun-19 01:30N 34°02' E 135°00'611.7
2018-Jun-19 01:00N 34°08' E 134°59'612.6
2018-Jun-19 00:31N 34°15' E 134°59'611.1
2018-Jun-19 00:01N 34°20' E 135°02'612.7
2018-Jun-18 23:31N 34°23' E 135°08'1 2.7
2018-Jun-18 23:01N 34°24' E 135°09'0 0.0
2018-Jun-18 22:31N 34°24' E 135°09'0 0.0
2018-Jun-18 22:01N 34°24' E 135°09'0 0.0
2018-Jun-18 21:31N 34°24' E 135°09'0 0.0
2018-Jun-18 21:01N 34°24' E 135°09'0 0.0
2018-Jun-18 20:31N 34°24' E 135°09'0 0.0
2018-Jun-18 20:00N 34°24' E 135°09'0 0.0
2018-Jun-18 19:30N 34°24' E 135°09'0 0.0
2018-Jun-18 19:01N 34°24' E 135°09'0 0.0
2018-Jun-18 18:30N 34°24' E 135°09'0 0.0
2018-Jun-18 18:00N 34°24' E 135°09'0 0.0
2018-Jun-18 17:30N 34°24' E 135°09'0 0.1
2018-Jun-18 17:01N 34°24' E 135°09'0 0.0
2018-Jun-18 16:31N 34°24' E 135°09'0 0.1
2018-Jun-18 16:00N 34°24' E 135°09'611.7
2018-Jun-18 15:31N 34°29' E 135°06'611.1
2018-Jun-18 15:01N 34°34' E 135°04'4 7.8
2018-Jun-18 14:31N 34°37' E 135°01'5 9.5
2018-Jun-18 14:01N 34°36' E 134°55'5 9.4
2018-Jun-18 13:30N 34°34' E 134°50'511.0
2018-Jun-18 13:01N 34°32' E 134°44'611.8
2018-Jun-18 12:30N 34°29' E 134°37'712.5
2018-Jun-18 11:56N 34°27' E 134°29'  
2018-Jun-15 07:59N 34°42' E 134°44'611.7
2018-Jun-15 07:29N 34°39' E 134°50'510.3
2018-Jun-15 07:00N 34°37' E 134°56'5 9.8
2018-Jun-15 06:30N 34°37' E 135°02'4 6.9
2018-Jun-15 05:59N 34°35' E 135°05'5 9.9
2018-Jun-15 05:30N 34°30' E 135°04'611.2
2018-Jun-15 05:00N 34°25' E 135°02'611.1
2018-Jun-15 04:31N 34°20' E 135°00'5 9.3
2018-Jun-15 04:00N 34°15' E 134°59'510.0
2018-Jun-15 03:30N 34°10' E 134°59'611.2
2018-Jun-15 03:00N 34°05' E 135°00'611.4
2018-Jun-15 02:31N 33°59' E 135°01'510.9
2018-Jun-15 02:01N 33°53' E 135°02'610.2
2018-Jun-15 01:25N 33°49' E 135°06'240 5.9
2018-Jun-13 08:42N 35°07' E 139°41'211.6
2018-Jun-13 08:30N 35°09' E 139°43'611.8
2018-Jun-13 07:59N 35°14' E 139°46'511.2
2018-Jun-13 07:30N 35°19' E 139°43'611.3
2018-Jun-13 07:00N 35°24' E 139°43'611.9
2018-Jun-13 06:30N 35°29' E 139°47'2 4.8
2018-Jun-13 06:00N 35°31' E 139°45'0 0.0
2018-Jun-13 05:28N 35°31' E 139°45'  

Dump ship's entire track history